Time;durP1;ratioP1;P1;durP2;ratioP2;P2;SDS_P1;SDS_P2;PMS_P1;PMS_P2;Temp;Humidity;BMP_temperature;BMP_pressure;BME280_temperature;BME280_humidity;BME280_pressure;Samples;Min_cycle;Max_cycle;Signal;HPM_P1;HPM_P2
2023/03/06 00:01:24;;;;;;;11.75;6.55;;;1.40;99.90;;;;;;5057935;28;20207;-83
2023/03/06 00:03:51;;;;;;;8.25;5.75;;;1.30;99.90;;;;;;5059133;28;20203;-83
2023/03/06 00:06:18;;;;;;;9.43;6.38;;;1.20;1.00;;;;;;5070344;28;20298;-83
2023/03/06 00:08:45;;;;;;;9.82;6.03;;;1.20;99.90;;;;;;5058725;28;20749;-83
2023/03/06 00:11:14;;;;;;;8.23;5.90;;;1.20;99.90;;;;;;5057789;28;20227;-82
2023/03/06 00:13:41;;;;;;;7.03;6.30;;;1.30;1.00;;;;;;5059184;28;20674;-84
2023/03/06 00:16:10;;;;;;;5.97;5.38;;;1.30;99.90;;;;;;5069401;28;20199;-82
2023/03/06 00:18:37;;;;;;;8.63;6.13;;;1.20;99.90;;;;;;5069701;28;20235;-82
2023/03/06 00:21:07;;;;;;;5.35;4.80;;;1.10;99.90;;;;;;5068948;28;20267;-82
2023/03/06 00:23:35;;;;;;;10.73;5.80;;;1.10;99.90;;;;;;5068716;28;20191;-83
2023/03/06 00:26:02;;;;;;;6.72;4.97;;;1.10;1.00;;;;;;5061780;28;20207;-83
2023/03/06 00:28:30;;;;;;;3.78;3.25;;;2.40;1.00;;;;;;5057870;28;20306;-81
2023/03/06 00:30:57;;;;;;;3.97;3.42;;;0.80;1.00;;;;;;5057755;28;20563;-83
2023/03/06 00:33:25;;;;;;;5.28;4.07;;;1.00;1.00;;;;;;5057897;28;20207;-83
2023/03/06 00:35:52;;;;;;;4.35;3.95;;;1.20;1.00;;;;;;5058115;28;20203;-82
2023/03/06 00:38:19;;;;;;;4.75;4.25;;;1.20;1.00;;;;;;5059330;28;20680;-82
2023/03/06 00:40:46;;;;;;;6.20;4.07;;;1.10;1.00;;;;;;5060290;28;20203;-83
2023/03/06 00:43:13;;;;;;;6.05;4.63;;;1.00;1.00;;;;;;5059493;28;20268;-84
2023/03/06 00:45:41;;;;;;;5.95;4.63;;;1.10;1.00;;;;;;5058023;28;20290;-85
2023/03/06 00:48:08;;;;;;;6.45;5.13;;;1.00;1.00;;;;;;5057346;28;20679;-83
2023/03/06 00:50:36;;;;;;;8.00;4.93;;;1.10;1.00;;;;;;5057482;28;20290;-84
2023/03/06 00:53:03;;;;;;;6.85;5.07;;;1.10;1.00;;;;;;5056776;28;20211;-84
2023/03/06 00:55:32;;;;;;;6.97;5.47;;;1.10;1.00;;;;;;5057396;28;20301;-84
2023/03/06 00:57:59;;;;;;;7.05;6.35;;;1.10;1.00;;;;;;5057793;28;20223;-82
2023/03/06 01:00:26;;;;;;;5.78;4.65;;;1.10;1.00;;;;;;5064986;28;20201;-82
2023/03/06 01:02:52;;;;;;;6.60;4.55;;;1.00;1.00;;;;;;5067304;28;20237;-82
2023/03/06 01:05:19;;;;;;;5.20;4.50;;;1.00;1.00;;;;;;5067134;28;20203;-82
2023/03/06 01:07:48;;;;;;;8.35;4.88;;;0.90;1.00;;;;;;5067914;28;20223;-82
2023/03/06 01:10:14;;;;;;;5.75;4.63;;;1.00;1.00;;;;;;5060204;28;20214;-83
2023/03/06 01:12:41;;;;;;;4.90;4.07;;;1.00;1.00;;;;;;5057510;28;20295;-83
2023/03/06 01:15:09;;;;;;;6.20;4.55;;;0.90;1.00;;;;;;5059011;28;20286;-81
2023/03/06 01:17:36;;;;;;;10.48;6.97;;;1.00;1.00;;;;;;5069561;28;20861;-81
2023/03/06 01:20:04;;;;;;;9.80;5.75;;;1.10;1.00;;;;;;5069050;28;20204;-82
2023/03/06 01:22:31;;;;;;;12.40;8.27;;;1.10;1.00;;;;;;5062255;28;20200;-83
2023/03/06 01:24:59;;;;;;;13.55;7.90;;;1.10;1.00;;;;;;5059950;28;20213;-82
2023/03/06 01:27:26;;;;;;;14.60;7.30;;;1.10;1.00;;;;;;5058909;28;20236;-82
2023/03/06 01:29:53;;;;;;;11.85;5.85;;;1.20;1.00;;;;;;5056054;28;20202;-82
2023/03/06 01:32:20;;;;;;;8.82;7.88;;;1.20;1.00;;;;;;5055987;28;20203;-82
2023/03/06 01:34:47;;;;;;;13.23;7.65;;;1.20;1.00;;;;;;5056349;28;20207;-83
2023/03/06 01:37:13;;;;;;;12.40;6.97;;;1.30;1.00;;;;;;5056686;28;20202;-83
2023/03/06 01:39:40;;;;;;;11.30;7.60;;;1.20;1.00;;;;;;5057977;28;20294;-82
2023/03/06 01:42:09;;;;;;;10.88;7.30;;;1.20;1.00;;;;;;5074535;28;20266;-82
2023/03/06 01:44:35;;;;;;;11.75;8.45;;;1.20;1.00;;;;;;5073273;28;20207;-83
2023/03/06 01:47:03;;;;;;;9.98;8.18;;;;;;;;;;5059318;28;20268;-82
2023/03/06 01:49:32;;;;;;;8.90;7.40;;;1.20;1.00;;;;;;5060622;28;20269;-85
2023/03/06 01:52:03;;;;;;;13.07;9.15;;;1.30;1.00;;;;;;5069765;28;20275;-82
2023/03/06 01:54:34;;;;;;;12.82;8.95;;;1.30;1.00;;;;;;5057273;28;20192;-83
2023/03/06 01:57:03;;;;;;;16.33;10.43;;;1.40;1.00;;;;;;5057324;28;20187;-83
2023/03/06 01:59:35;;;;;;;18.38;10.27;;;1.40;1.00;;;;;;5056776;28;20249;-83
2023/03/06 02:02:03;;;;;;;13.95;10.10;;;1.40;1.00;;;;;;5056111;28;20187;-83
2023/03/06 02:04:30;;;;;;;21.38;11.63;;;1.40;1.00;;;;;;5056297;28;20203;-83
2023/03/06 02:07:00;;;;;;;16.92;10.88;;;1.40;1.00;;;;;;5056659;28;20281;-83
2023/03/06 02:09:29;;;;;;;20.02;13.07;;;1.40;1.00;;;;;;5056520;28;20601;-83
2023/03/06 02:11:56;;;;;;;13.60;9.98;;;1.40;1.00;;;;;;5058154;28;20299;-83
2023/03/06 02:14:24;;;;;;;16.13;9.07;;;1.40;1.00;;;;;;5072739;28;20180;-82
2023/03/06 02:16:52;;;;;;;14.25;9.07;;;1.40;1.00;;;;;;5078106;28;20214;-81
2023/03/06 02:19:30;;;;;;;15.27;8.77;;;1.40;1.00;;;;;;5085514;22;20642;-82
2023/03/06 02:21:57;;;;;;;13.23;8.88;;;1.40;1.00;;;;;;5080040;28;20235;-83
2023/03/06 02:24:34;;;;;;;15.43;8.48;;;1.50;1.00;;;;;;5079096;28;20263;-82
2023/03/06 02:27:05;;;;;;;13.05;8.30;;;1.50;1.00;;;;;;5081953;28;20170;-82
2023/03/06 02:29:32;;;;;;;14.18;9.32;;;1.60;1.00;;;;;;5082146;28;20246;-82
2023/03/06 02:31:59;;;;;;;12.65;7.85;;;1.60;1.00;;;;;;5082292;28;20187;-82
2023/03/06 02:34:57;;;;;;;12.45;8.93;;;1.60;1.00;;;;;;5081103;28;20206;-82
2023/03/06 02:37:26;;;;;;;9.55;7.75;;;1.70;1.00;;;;;;5040987;28;20251;-82
2023/03/06 02:40:02;;;;;;;16.70;8.45;;;1.70;1.00;;;;;;5064600;28;20646;-83
2023/03/06 02:42:30;;;;;;;13.18;8.95;;;1.70;1.00;;;;;;5069210;28;20222;-82
2023/03/06 02:44:59;;;;;;;8.52;6.35;;;1.80;1.00;;;;;;5067209;28;20279;-82
2023/03/06 02:47:26;;;;;;;44.03;26.55;;;1.80;1.00;;;;;;5066855;28;20208;-82
2023/03/06 02:49:53;;;;;;;10.68;7.90;;;2.10;1.00;;;;;;5067028;28;20222;-82
2023/03/06 02:52:20;;;;;;;14.70;8.02;;;1.90;1.00;;;;;;5065699;28;20295;-82
2023/03/06 02:54:47;;;;;;;9.30;7.20;;;1.90;1.00;;;;;;5068508;28;20206;-82
2023/03/06 02:57:13;;;;;;;12.63;7.95;;;1.90;1.00;;;;;;5069284;28;20290;-82
2023/03/06 02:59:42;;;;;;;11.43;7.55;;;1.90;1.00;;;;;;5067962;28;20749;-82
2023/03/06 03:02:09;;;;;;;8.48;6.70;;;2.50;1.10;;;;;;5069070;28;20274;-82
2023/03/06 03:04:35;;;;;;;18.05;7.72;;;1.90;1.00;;;;;;5068435;28;20636;-81
2023/03/06 03:07:03;;;;;;;8.10;7.00;;;1.90;1.00;;;;;;5068734;28;20217;-81
2023/03/06 03:09:35;;;;;;;7.47;6.28;;;2.00;1.00;;;;;;5068515;28;20711;-81
2023/03/06 03:12:02;;;;;;;11.70;6.65;;;2.00;1.00;;;;;;5068484;28;20199;-81
2023/03/06 03:14:29;;;;;;;7.00;6.05;;;2.00;1.00;;;;;;5067503;28;20291;-82
2023/03/06 03:16:57;;;;;;;7.68;6.45;;;1.90;1.00;;;;;;5068090;28;20237;-81
2023/03/06 03:19:24;;;;;;;9.07;6.25;;;2.10;1.00;;;;;;5069552;28;20233;-81
2023/03/06 03:21:51;;;;;;;7.65;6.15;;;2.30;1.00;;;;;;5069213;28;20223;-81
2023/03/06 03:24:18;;;;;;;7.30;5.28;;;1.80;1.00;;;;;;5068499;28;20211;-81
2023/03/06 03:26:45;;;;;;;7.13;5.30;;;2.20;1.00;;;;;;5072682;28;20222;-82
2023/03/06 03:29:11;;;;;;;7.78;6.22;;;2.40;1.00;;;;;;5080704;28;20224;-81
2023/03/06 03:31:38;;;;;;;7.85;5.80;;;2.10;1.00;;;;;;5079972;28;20235;-82
2023/03/06 03:34:07;;;;;;;8.82;6.00;;;2.20;1.00;;;;;;5080674;28;20231;-82
2023/03/06 03:36:34;;;;;;;8.20;5.80;;;2.20;1.00;;;;;;5080307;28;20203;-82
2023/03/06 03:39:00;;;;;;;10.90;7.47;;;2.50;1.00;;;;;;5078996;28;20262;-82
2023/03/06 03:41:27;;;;;;;9.63;5.68;;;2.20;1.00;;;;;;5078659;28;20362;-82
2023/03/06 03:43:54;;;;;;;6.40;5.55;;;2.20;1.00;;;;;;5080046;28;20206;-82
2023/03/06 03:46:21;;;;;;;11.00;5.97;;;2.20;1.00;;;;;;5078682;28;20227;-81
2023/03/06 03:48:48;;;;;;;11.65;5.32;;;4.60;1.00;;;;;;5077982;28;20289;-82
2023/03/06 03:51:16;;;;;;;8.00;6.68;;;2.20;1.00;;;;;;5074347;28;20241;-82
2023/03/06 03:53:43;;;;;;;7.07;5.28;;;2.30;1.00;;;;;;5070979;28;20199;-82
2023/03/06 03:56:12;;;;;;;5.40;4.78;;;2.30;1.00;;;;;;5069095;28;20203;-82
2023/03/06 03:58:39;;;;;;;8.00;5.20;;;2.30;1.00;;;;;;5068688;28;20227;-82
2023/03/06 04:01:06;;;;;;;6.43;5.05;;;2.40;1.00;;;;;;5068423;28;20299;-82
2023/03/06 04:03:33;;;;;;;5.22;4.25;;;2.30;1.00;;;;;;5068635;28;20275;-82
2023/03/06 04:06:00;;;;;;;5.97;4.53;;;2.30;1.00;;;;;;5069704;28;20207;-82
2023/03/06 04:08:29;;;;;;;6.70;4.40;;;2.40;1.00;;;;;;5069245;28;20256;-82
2023/03/06 04:10:56;;;;;;;5.50;4.97;;;2.40;1.00;;;;;;5069113;28;20294;-83
2023/03/06 04:13:23;;;;;;;8.25;4.45;;;2.70;1.00;;;;;;5069964;28;20187;-82
2023/03/06 04:15:52;;;;;;;5.95;4.70;;;2.40;1.00;;;;;;5080036;28;20222;-80
2023/03/06 04:18:19;;;;;;;5.40;4.32;;;2.40;1.00;;;;;;5078913;28;20234;-82
2023/03/06 04:20:47;;;;;;;6.63;5.00;;;2.50;1.00;;;;;;5068141;28;20192;-82
2023/03/06 04:23:15;;;;;;;6.13;5.03;;;2.50;1.00;;;;;;5066138;28;20637;-82
2023/03/06 04:25:43;;;;;;;4.68;4.20;;;2.60;1.00;;;;;;5068978;28;20690;-83
2023/03/06 04:28:11;;;;;;;9.65;3.97;;;2.30;1.00;;;;;;5070537;28;20208;-82
2023/03/06 04:30:38;;;;;;;8.02;3.95;;;2.20;1.00;;;;;;5071730;28;20284;-81
2023/03/06 04:33:05;;;;;;;3.88;3.67;;;2.40;1.00;;;;;;5069368;28;20226;-83
2023/03/06 04:35:32;;;;;;;3.13;2.92;;;2.40;1.00;;;;;;5068977;28;20207;-82
2023/03/06 04:37:59;;;;;;;3.22;2.92;;;2.40;1.00;;;;;;5067889;28;20212;-81
2023/03/06 04:40:28;;;;;;;2.88;2.60;;;2.20;1.00;;;;;;5066478;28;20203;-82
2023/03/06 04:42:58;;;;;;;2.40;2.20;;;2.20;1.00;;;;;;5065698;28;20290;-83
2023/03/06 04:45:26;;;;;;;3.50;3.20;;;2.30;1.00;;;;;;5065909;28;20214;-82
2023/03/06 04:47:53;;;;;;;2.97;2.78;;;2.20;1.00;;;;;;5068631;28;20211;-82
2023/03/06 04:50:21;;;;;;;3.63;3.33;;;2.20;1.00;;;;;;5079247;28;20250;-82
2023/03/06 04:52:47;;;;;;;5.30;4.82;;;2.00;1.00;;;;;;5076943;28;20192;-82
2023/03/06 04:55:17;;;;;;;5.05;4.22;;;2.10;1.00;;;;;;5077635;28;20204;-81
2023/03/06 04:57:45;;;;;;;4.95;4.45;;;2.00;1.00;;;;;;5077894;28;20251;-81
2023/03/06 05:00:17;;;;;;;5.80;4.00;;;1.90;1.00;;;;;;5067940;28;20270;-82
2023/03/06 05:02:44;;;;;;;4.22;3.83;;;2.10;1.00;;;;;;5067665;28;20455;-83
2023/03/06 05:05:12;;;;;;;4.45;4.05;;;1.90;1.00;;;;;;5066928;28;20236;-82
2023/03/06 05:07:39;;;;;;;4.30;3.90;;;1.90;1.00;;;;;;5064657;28;20290;-83
2023/03/06 05:10:08;;;;;;;6.55;3.58;;;2.10;1.00;;;;;;5066590;28;20645;-82
2023/03/06 05:12:36;;;;;;;3.42;3.13;;;2.00;1.00;;;;;;5067572;28;20227;-83
2023/03/06 05:15:04;;;;;;;4.88;3.70;;;1.90;1.00;;;;;;5068102;28;20205;-83
2023/03/06 05:17:32;;;;;;;3.85;3.55;;;1.80;1.00;;;;;;5068922;28;20292;-82
2023/03/06 05:19:59;;;;;;;4.30;3.90;;;1.80;1.00;;;;;;5068389;28;20238;-83
2023/03/06 05:22:26;;;;;;;4.60;4.20;;;1.70;1.00;;;;;;5071903;28;20251;-81
2023/03/06 05:24:53;;;;;;;4.70;4.20;;;1.90;1.00;;;;;;5078709;28;20247;-83
2023/03/06 05:27:20;;;;;;;4.90;4.40;;;1.70;1.00;;;;;;5078761;28;20187;-82
2023/03/06 05:29:47;;;;;;;4.97;4.38;;;1.80;1.00;;;;;;5072339;28;20247;-83
2023/03/06 05:32:15;;;;;;;5.10;4.60;;;1.80;1.00;;;;;;5070713;28;20202;-82
2023/03/06 05:34:43;;;;;;;5.53;4.85;;;1.70;1.00;;;;;;5069792;28;20199;-82
2023/03/06 05:37:10;;;;;;;5.57;4.15;;;1.70;1.00;;;;;;5068618;28;20210;-83
2023/03/06 05:39:37;;;;;;;5.28;4.70;;;1.50;1.00;;;;;;5074799;28;20211;-83
2023/03/06 05:42:04;;;;;;;5.15;4.63;;;1.60;1.00;;;;;;5077007;28;20227;-83
2023/03/06 05:44:32;;;;;;;6.57;5.00;;;1.60;1.00;;;;;;5075611;28;20415;-86
2023/03/06 05:57:07;;;;;;;5.15;4.00;;;1.60;1.00;;;;;;5078366;28;20172;-82
2023/03/06 05:59:34;;;;;;;5.32;4.25;;;1.60;1.00;;;;;;5071665;28;20219;-82
2023/03/06 06:02:02;;;;;;;6.00;5.40;;;1.60;1.00;;;;;;5071802;28;20230;-82
2023/03/06 06:04:29;;;;;;;5.63;4.35;;;1.60;1.00;;;;;;5071686;28;20234;-82
2023/03/06 06:06:59;;;;;;;5.40;4.28;;;1.50;1.00;;;;;;5069687;28;20521;-82
2023/03/06 06:09:26;;;;;;;5.35;4.68;;;1.60;1.00;;;;;;5069492;28;20246;-82
2023/03/06 06:11:55;;;;;;;7.35;5.25;;;1.60;1.00;;;;;;5069504;28;20207;-82
2023/03/06 06:14:23;;;;;;;10.85;5.93;;;1.50;1.00;;;;;;5069565;28;20237;-81
2023/03/06 06:16:50;;;;;;;7.57;5.97;;;1.50;1.00;;;;;;5069962;28;20268;-81
2023/03/06 06:19:19;;;;;;;9.95;7.32;;;1.50;1.00;;;;;;5070571;28;20314;-81
2023/03/06 06:21:47;;;;;;;8.55;6.82;;;1.40;1.00;;;;;;5071102;28;20728;-82
2023/03/06 06:24:14;;;;;;;8.98;6.65;;;1.40;1.00;;;;;;5070100;28;20209;-82
2023/03/06 06:26:42;;;;;;;7.05;6.05;;;2.10;1.00;;;;;;5070231;28;20200;-82
2023/03/06 06:29:09;;;;;;;7.97;6.07;;;1.30;1.00;;;;;;5069473;28;20317;-82
2023/03/06 06:31:37;;;;;;;6.95;5.22;;;1.40;1.00;;;;;;5070502;28;20214;-82
2023/03/06 06:34:05;;;;;;;6.05;5.32;;;1.40;1.00;;;;;;5071069;28;20583;-82
2023/03/06 06:36:32;;;;;;;5.45;4.60;;;1.30;1.00;;;;;;5067776;28;20236;-81
2023/03/06 06:39:00;;;;;;;5.25;4.75;;;1.40;1.00;;;;;;5065859;28;20238;-81
2023/03/06 06:41:27;;;;;;;9.18;5.93;;;1.40;1.00;;;;;;5067411;28;20204;-81
2023/03/06 06:43:54;;;;;;;7.97;5.40;;;1.40;1.00;;;;;;5066703;28;20229;-82
2023/03/06 06:46:21;;;;;;;6.22;5.63;;;1.40;1.00;;;;;;5070104;28;20242;-82
2023/03/06 06:48:51;;;;;;;8.20;5.68;;;1.50;1.00;;;;;;5070225;28;20646;-82
2023/03/06 06:51:18;;;;;;;8.95;6.03;;;1.40;1.00;;;;;;5068301;28;20310;-82
2023/03/06 06:53:45;;;;;;;9.35;7.47;;;1.30;1.00;;;;;;5069492;28;20227;-82
2023/03/06 06:56:12;;;;;;;6.47;5.10;;;1.30;1.00;;;;;;5080549;28;20188;-82
2023/03/06 06:58:39;;;;;;;8.13;6.00;;;1.40;1.00;;;;;;5081349;28;20229;-82
2023/03/06 07:01:07;;;;;;;8.32;5.97;;;1.40;1.00;;;;;;5081496;28;20177;-82
2023/03/06 07:03:33;;;;;;;9.13;6.60;;;1.40;1.00;;;;;;5078317;28;20216;-82
2023/03/06 07:06:02;;;;;;;7.20;5.40;;;1.40;1.00;;;;;;5075476;28;20211;-79
2023/03/06 07:08:30;;;;;;;6.57;5.97;;;1.30;1.00;;;;;;5080753;28;20255;-80
2023/03/06 07:10:57;;;;;;;12.25;6.20;;;1.40;1.00;;;;;;5079835;28;20266;-81
2023/03/06 07:13:23;;;;;;;6.40;5.63;;;1.50;1.00;;;;;;5077247;28;20244;-81
2023/03/06 07:15:50;;;;;;;12.55;5.90;;;1.40;1.00;;;;;;5074085;28;20218;-81
2023/03/06 07:18:17;;;;;;;8.65;5.38;;;1.40;1.00;;;;;;5079907;28;20246;-81
2023/03/06 07:20:44;;;;;;;5.82;4.60;;;1.30;1.00;;;;;;5080247;28;20188;-81
2023/03/06 07:23:13;;;;;;;6.03;5.20;;;1.60;1.00;;;;;;5080226;28;20211;-81
2023/03/06 07:25:40;;;;;;;7.07;4.70;;;1.50;1.00;;;;;;5076825;28;20199;-80
2023/03/06 07:28:07;;;;;;;5.30;4.80;;;1.60;1.00;;;;;;5076530;28;20327;-81
2023/03/06 07:30:34;;;;;;;4.80;3.65;;;1.60;1.00;;;;;;5079707;28;20231;-80
2023/03/06 07:33:01;;;;;;;9.68;5.47;;;1.20;1.00;;;;;;5078720;28;20184;-81
2023/03/06 07:35:28;;;;;;;18.58;5.50;;;1.50;1.00;;;;;;5080284;28;20199;-81
2023/03/06 07:37:55;;;;;;;5.05;4.43;;;1.50;1.00;;;;;;5080206;28;20180;-81
2023/03/06 07:40:24;;;;;;;7.80;4.80;;;1.60;1.00;;;;;;5078800;28;20267;-82
2023/03/06 07:42:53;;;;;;;18.27;7.60;;;1.60;1.00;;;;;;5077632;28;20195;-82
2023/03/06 07:45:20;;;;;;;10.27;5.95;;;;;;;;;;5078055;28;20211;-82
2023/03/06 07:47:49;;;;;;;7.80;6.07;;;1.50;1.00;;;;;;5077828;28;20211;-82
2023/03/06 07:50:18;;;;;;;10.20;5.45;;;1.50;1.00;;;;;;5071715;28;20265;-82
2023/03/06 07:52:45;;;;;;;7.40;5.25;;;1.90;1.00;;;;;;5071583;28;20227;-84
2023/03/06 07:55:12;;;;;;;12.20;5.68;;;1.60;1.00;;;;;;5070178;28;20202;-83
2023/03/06 07:57:41;;;;;;;5.90;5.05;;;1.70;1.00;;;;;;5069772;28;20270;-84
2023/03/06 08:00:11;;;;;;;10.60;5.85;;;1.70;1.00;;;;;;5071832;28;20222;-82
2023/03/06 08:02:38;;;;;;;6.72;5.53;;;1.70;1.00;;;;;;5079769;28;20215;-82
2023/03/06 08:05:06;;;;;;;8.52;6.07;;;2.70;1.00;;;;;;5067573;28;20743;-82
2023/03/06 08:07:33;;;;;;;7.55;5.90;;;1.60;1.00;;;;;;5064224;28;20214;-83
2023/03/06 08:09:59;;;;;;;6.45;4.88;;;1.80;1.00;;;;;;5064979;28;20491;-83
2023/03/06 08:12:26;;;;;;;12.15;6.35;;;1.70;1.00;;;;;;5065923;28;20209;-83
2023/03/06 08:14:55;;;;;;;8.75;5.25;;;1.60;99.90;;;;;;5071384;28;20270;-83
2023/03/06 08:17:22;;;;;;;33.75;7.07;;;1.70;99.90;;;;;;5073317;28;20218;-83
2023/03/06 08:19:48;;;;;;;8.20;5.40;;;1.60;99.90;;;;;;5073144;28;20231;-81
2023/03/06 08:22:15;;;;;;;23.55;5.90;;;3.20;99.90;;;;;;5073156;28;20231;-82
2023/03/06 08:24:42;;;;;;;15.05;4.93;;;1.80;1.00;;;;;;5068469;28;20267;-83
2023/03/06 08:27:09;;;;;;;6.65;5.22;;;1.60;99.90;;;;;;5069409;28;20307;-82
2023/03/06 08:29:36;;;;;;;6.22;5.60;;;1.70;99.90;;;;;;5069212;28;20219;-83
2023/03/06 08:32:04;;;;;;;7.93;5.60;;;1.60;99.90;;;;;;5078469;28;20195;-82
2023/03/06 08:34:31;;;;;;;8.65;5.50;;;1.60;99.90;;;;;;5077696;28;20207;-81
2023/03/06 08:36:58;;;;;;;5.82;4.22;;;1.50;99.90;;;;;;5076828;28;20665;-81
2023/03/06 08:39:25;;;;;;;9.07;6.03;;;1.60;99.90;;;;;;5064015;28;20290;-81
2023/03/06 08:41:52;;;;;;;8.70;5.78;;;1.50;99.90;;;;;;5062149;28;20264;-80
2023/03/06 08:44:19;;;;;;;5.80;4.35;;;1.50;99.90;;;;;;5061549;28;20621;-81
2023/03/06 08:46:45;;;;;;;9.38;4.90;;;1.50;99.90;;;;;;5062206;28;20232;-81
2023/03/06 08:49:14;;;;;;;13.13;5.40;;;1.70;99.90;;;;;;5061039;28;20277;-81
2023/03/06 08:51:41;;;;;;;3.95;3.40;;;1.70;99.90;;;;;;5062534;28;20231;-80
2023/03/06 08:54:08;;;;;;;5.85;3.75;;;1.70;1.00;;;;;;5062224;28;20219;-81
2023/03/06 08:56:35;;;;;;;16.08;4.88;;;1.50;99.90;;;;;;5062356;28;20234;-82
2023/03/06 08:59:03;;;;;;;7.32;4.47;;;1.50;99.90;;;;;;5060457;28;20250;-81
2023/03/06 09:01:33;;;;;;;4.22;3.35;;;1.40;99.90;;;;;;5059972;28;20207;-80
2023/03/06 09:04:02;;;;;;;6.47;3.78;;;1.40;99.90;;;;;;5059275;28;20210;-80
2023/03/06 09:06:32;;;;;;;5.75;3.78;;;1.40;99.90;;;;;;5059821;28;20573;-82
2023/03/06 09:09:00;;;;;;;3.47;2.95;;;1.40;99.90;;;;;;5060642;28;20593;-81
2023/03/06 09:11:27;;;;;;;6.82;4.40;;;1.40;99.90;;;;;;5061659;28;20286;-81
2023/03/06 09:13:54;;;;;;;5.57;4.93;;;1.40;99.90;;;;;;5060304;28;20206;-81
2023/03/06 09:16:22;;;;;;;4.95;3.75;;;1.40;99.90;;;;;;5061037;28;20276;-81
2023/03/06 09:18:49;;;;;;;4.88;3.88;;;1.50;99.90;;;;;;5066770;28;20739;-82
2023/03/06 09:21:16;;;;;;;4.18;3.63;;;1.50;99.90;;;;;;5076788;28;20204;-81
2023/03/06 09:23:45;;;;;;;4.35;3.65;;;1.50;99.90;;;;;;5076025;28;20203;-80
2023/03/06 09:26:12;;;;;;;5.10;3.40;;;1.50;99.90;;;;;;5069454;28;20225;-81
2023/03/06 09:28:40;;;;;;;6.20;3.30;;;1.60;99.90;;;;;;5062516;28;20262;-82
2023/03/06 09:31:10;;;;;;;4.90;3.33;;;1.60;99.90;;;;;;5073232;28;20283;-81
2023/03/06 09:33:37;;;;;;;4.70;3.53;;;1.70;99.90;;;;;;5077024;28;20188;-81
2023/03/06 09:36:06;;;;;;;4.15;3.72;;;1.60;99.90;;;;;;5073638;28;20236;-81
2023/03/06 09:38:33;;;;;;;5.55;4.15;;;1.50;99.90;;;;;;5069978;28;20232;-82
2023/03/06 09:41:05;;;;;;;4.93;4.00;;;1.40;99.90;;;;;;5072452;28;20204;-81
2023/03/06 09:43:36;;;;;;;6.70;4.30;;;1.30;99.90;;;;;;5067312;28;20187;-80
2023/03/06 09:46:13;;;;;;;10.27;3.70;;;1.70;1.00;;;;;;5063412;28;20270;-81
2023/03/06 09:48:47;;;;;;;6.40;4.40;;;1.40;99.90;;;;;;5063269;28;20233;-81
2023/03/06 09:51:17;;;;;;;3.75;2.92;;;1.50;99.90;;;;;;5061046;28;20573;-82
2023/03/06 09:54:01;;;;;;;4.68;3.25;;;1.50;99.90;;;;;;5061293;28;20233;-80
2023/03/06 09:56:34;;;;;;;4.70;3.47;;;1.50;99.90;;;;;;5060836;28;20234;-81
2023/03/06 09:59:07;;;;;;;9.75;3.22;;;1.60;99.90;;;;;;5062648;28;20330;-80
2023/03/06 10:01:37;;;;;;;9.20;3.45;;;1.70;99.90;;;;;;5062044;28;20247;-81
2023/03/06 10:04:11;;;;;;;8.90;3.10;;;1.70;99.90;;;;;;5060688;28;20245;-80
2023/03/06 10:06:47;;;;;;;8.73;2.25;;;1.70;99.90;;;;;;5061734;28;20194;-81
2023/03/06 10:09:19;;;;;;;7.55;2.92;;;1.70;99.90;;;;;;5060075;28;20234;-81
2023/03/06 10:11:54;;;;;;;6.82;2.97;;;1.80;99.90;;;;;;5060086;28;20750;-81
2023/03/06 10:14:29;;;;;;;18.88;3.45;;;1.80;1.00;;;;;;5060383;28;20191;-81
2023/03/06 10:16:57;;;;;;;6.95;2.67;;;1.80;1.00;;;;;;5071801;28;20656;-81
2023/03/06 10:19:31;;;;;;;4.15;2.30;;;1.70;1.00;;;;;;5070058;28;20227;-81
2023/03/06 10:22:03;;;;;;;3.92;2.00;;;1.80;1.00;;;;;;5070740;28;20278;-81
2023/03/06 10:24:47;;;;;;;23.98;4.93;;;1.70;1.00;;;;;;5071792;28;20216;-81
2023/03/06 10:27:28;;;;;;;7.43;4.43;;;1.60;1.00;;;;;;5061946;28;20564;-81
2023/03/06 10:30:02;;;;;;;6.70;2.05;;;1.60;2.40;;;;;;5063503;28;20220;-81
2023/03/06 10:32:33;;;;;;;2.72;2.08;;;1.70;1.00;;;;;;5074206;28;20207;-81
2023/03/06 10:35:02;;;;;;;7.40;2.70;;;1.70;11.00;;;;;;5074989;28;20248;-80
2023/03/06 10:37:29;;;;;;;6.32;2.70;;;1.70;82.70;;;;;;5075831;28;20230;-79
2023/03/06 10:40:03;;;;;;;44.08;4.60;;;1.50;78.30;;;;;;5075305;28;20288;-80
2023/03/06 10:42:31;;;;;;;7.32;2.47;;;1.60;99.90;;;;;;5078857;28;20186;-80
2023/03/06 10:45:10;;;;;;;21.35;3.50;;;1.70;99.90;;;;;;5076179;28;20226;-80
2023/03/06 10:47:39;;;;;;;10.18;2.83;;;1.80;99.90;;;;;;5079951;28;20198;-80
2023/03/06 10:50:20;;;;;;;5.78;2.58;;;1.80;99.90;;;;;;5072135;28;20219;-82
2023/03/06 10:52:59;;;;;;;38.88;3.55;;;1.80;99.90;;;;;;5070558;28;20191;-80
2023/03/06 10:55:29;;;;;;;6.05;2.30;;;1.80;17.40;;;;;;5068460;28;20191;-81
2023/03/06 10:57:57;;;;;;;6.93;2.40;;;1.80;96.80;;;;;;5069257;28;20713;-81
2023/03/06 11:00:32;;;;;;;24.98;5.18;;;1.80;1.00;;;;;;5068112;28;20295;-80
2023/03/06 11:03:22;;;;;;;8.27;3.20;;;1.90;1.00;;;;;;5066598;28;20247;-81
2023/03/06 11:06:07;;;;;;;7.95;2.70;;;1.90;1.00;;;;;;5062893;28;20271;-81
2023/03/06 11:08:35;;;;;;;12.35;3.95;;;2.00;1.00;;;;;;5063714;28;20228;-80
2023/03/06 11:11:04;;;;;;;34.78;4.78;;;1.80;1.00;;;;;;5073947;28;20282;-80
2023/03/06 11:13:34;;;;;;;27.60;4.63;;;1.90;20.10;;;;;;5079515;28;20213;-81
2023/03/06 11:16:04;;;;;;;26.50;4.45;;;1.90;1.00;;;;;;5066220;28;20235;-81
2023/03/06 11:18:36;;;;;;;17.40;2.97;;;2.00;65.50;;;;;;5077199;28;20215;-82
2023/03/06 11:21:07;;;;;;;4.20;2.10;;;2.90;99.90;;;;;;5080514;28;20239;-80
2023/03/06 11:23:41;;;;;;;3.95;2.50;;;2.70;1.00;;;;;;5070811;28;20192;-81
2023/03/06 11:26:29;;;;;;;3.45;2.70;;;2.50;1.00;;;;;;5062485;28;20203;-81
2023/03/06 11:29:27;;;;;;;2.83;2.40;;;2.70;1.00;;;;;;5062585;28;20223;-82
2023/03/06 11:31:58;;;;;;;6.72;2.40;;;3.10;1.00;;;;;;5064332;28;20304;-82
2023/03/06 11:34:41;;;;;;;2.20;2.00;;;3.10;1.00;;;;;;5063803;28;20188;-82
2023/03/06 11:37:13;;;;;;;2.33;1.50;;;4.30;1.00;;;;;;5064203;28;20263;-82
2023/03/06 11:39:44;;;;;;;4.22;2.63;;;2.50;1.00;;;;;;5062349;28;20224;-82
2023/03/06 11:42:21;;;;;;;2.47;2.15;;;2.70;99.90;;;;;;5063214;28;20279;-82
2023/03/06 11:45:00;;;;;;;1.65;1.55;;;2.50;99.90;;;;;;5063276;28;20192;-82
2023/03/06 11:47:32;;;;;;;3.40;1.65;;;2.40;99.90;;;;;;5063165;28;20713;-82
2023/03/06 11:50:13;;;;;;;3.05;2.08;;;2.40;99.90;;;;;;5063824;28;20242;-82
2023/03/06 11:52:46;;;;;;;3.28;2.08;;;2.50;99.90;;;;;;5063834;28;20207;-81
2023/03/06 11:55:17;;;;;;;2.30;2.05;;;2.10;99.90;;;;;;5064148;28;20652;-82
2023/03/06 11:57:52;;;;;;;2.30;1.90;;;2.40;1.00;;;;;;5063396;28;20183;-81
2023/03/06 12:00:40;;;;;;;3.92;1.80;;;2.30;99.90;;;;;;5066403;28;20223;-82
2023/03/06 12:03:30;;;;;;;3.65;2.25;;;2.20;99.90;;;;;;5068083;28;20551;-81
2023/03/06 12:06:02;;;;;;;6.00;2.20;;;2.50;99.90;;;;;;5071811;28;20617;-82
2023/03/06 12:08:43;;;;;;;5.90;2.10;;;2.40;16.00;;;;;;5066883;28;20247;-81
2023/03/06 12:11:19;;;;;;;2.25;1.90;;;2.50;1.00;;;;;;5064986;28;20241;-80
2023/03/06 12:13:59;;;;;;;4.68;2.28;;;2.20;99.90;;;;;;5063859;28;20218;-81
2023/03/06 12:16:39;;;;;;;4.05;2.13;;;2.30;88.60;;;;;;5064946;28;20610;-81
2023/03/06 12:19:24;;;;;;;5.70;3.38;;;2.40;99.90;;;;;;5064912;28;20231;-82
2023/03/06 12:22:04;;;;;;;2.97;2.35;;;2.60;99.90;;;;;;5063115;28;20615;-82
2023/03/06 12:24:56;;;;;;;1.90;1.70;;;2.40;1.00;;;;;;5063786;28;20223;-82
2023/03/06 12:27:31;;;;;;;2.35;2.15;;;2.40;1.00;;;;;;5072771;28;20188;-82
2023/03/06 12:30:19;;;;;;;6.90;3.40;;;2.50;99.90;;;;;;5062759;28;20231;-82
2023/03/06 12:32:52;;;;;;;3.05;2.22;;;2.90;99.90;;;;;;5062846;28;20204;-82
2023/03/06 12:35:42;;;;;;;2.25;2.05;;;2.80;1.00;;;;;;5061918;28;20698;-82
2023/03/06 12:38:33;;;;;;;5.40;2.80;;;2.70;99.90;;;;;;5060413;28;20191;-81
2023/03/06 12:41:09;;;;;;;4.70;2.92;;;3.00;1.00;;;;;;5062419;28;20220;-81
2023/03/06 12:44:21;;;;;;;4.50;2.13;;;3.10;1.00;;;;;;5071552;28;20252;-82
2023/03/06 12:46:54;;;;;;;5.38;2.60;;;2.90;1.00;;;;;;5061611;28;20211;-82
2023/03/06 12:49:26;;;;;;;2.90;2.55;;;3.00;36.30;;;;;;5062319;28;20281;-83
2023/03/06 12:51:55;;;;;;;3.20;2.20;;;3.00;1.00;;;;;;5060878;28;20298;-81
2023/03/06 12:54:25;;;;;;;6.30;4.20;;;2.90;1.00;;;;;;5061479;28;20204;-81
2023/03/06 12:56:54;;;;;;;5.10;4.22;;;3.20;99.90;;;;;;5063696;28;20219;-82
2023/03/06 12:59:43;;;;;;;3.95;3.63;;;3.10;99.90;;;;;;5061804;28;20733;-81
2023/03/06 13:02:56;;;;;;;5.22;3.97;;;3.10;1.00;;;;;;5066153;28;20188;-82
2023/03/06 13:05:42;;;;;;;4.88;3.03;;;3.30;99.90;;;;;;5050163;28;20218;-80
2023/03/06 13:08:37;;;;;;;3.78;3.38;;;3.70;1.00;;;;;;5065472;28;20210;-82
2023/03/06 13:11:30;;;;;;;4.05;3.75;;;3.50;99.90;;;;;;5063147;28;20294;-82
2023/03/06 13:13:57;;;;;;;4.97;4.47;;;3.70;99.90;;;;;;5064767;28;20242;-81
2023/03/06 13:16:30;;;;;;;15.68;5.63;;;3.60;1.00;;;;;;5069807;28;20226;-81
2023/03/06 13:19:10;;;;;;;7.88;5.00;;;3.50;1.00;;;;;;5075384;28;20241;-80
2023/03/06 13:22:13;;;;;;;11.48;4.93;;;3.40;1.00;;;;;;5074475;28;20187;-82
2023/03/06 13:24:42;;;;;;;21.58;5.65;;;3.40;1.00;;;;;;5071816;28;20187;-81
2023/03/06 13:27:10;;;;;;;10.25;5.68;;;3.40;1.00;;;;;;5067643;28;20743;-82
2023/03/06 13:30:02;;;;;;;16.45;5.90;;;3.40;3.70;;;;;;5065057;28;20238;-83